KART

Watertown International Airport

Watertown, New York, USA
METAR KART 212256Z AUTO 17009G22KT 10SM OVC100 23/18 A2976 RMK AO2 SLP074 T02280183
Observed Flight Rules
Aug-21 @ 22:56 UTC (51 minutes ago) Visual Flight Rules
Wind Visibility Clouds
170° at 9 knots
 Gusting to 22 knots
10 miles
  • Overcast at 10,000' AGL
Temperatures Readings
Current 23°C / 73°F
Dewpoint 18°C / 64°F
Humidity 74%
Altimeter 29.76" Hg
Pressure 1007.4 hPa
Elevation 100
METAR KART 212256Z AUTO 17009G22KT 10SM OVC100 23/18 A2976 RMK AO2 SLP074 T02280183
Observed Flight Rules
Aug-21 @ 22:56 UTC
(51 minutes ago)
VFR
Wind Visibility
170° at 9 knots
 Gusting to 22 knots
10 miles
Clouds
  • Overcast at 10,000' AGL
Temperature Dewpoint
23°C / 73°F 18°C / 64°F
Humidity Altimeter Pressure
74% 29.76" Hg 1007.4 hPa